createdAt,value
2022-08-03T00:03:21.786Z,35.60
2022-08-03T00:08:23.659Z,35.60
2022-08-03T00:13:25.740Z,36.30
2022-08-03T00:18:27.392Z,36.40
2022-08-03T00:23:51.537Z,36.30
2022-08-03T00:28:50.702Z,37.00
2022-08-03T00:33:59.264Z,37.20
2022-08-03T00:39:01.721Z,37.50
2022-08-03T00:44:03.429Z,37.80
2022-08-03T00:49:05.110Z,38.70
2022-08-03T00:54:06.768Z,38.80
2022-08-03T00:59:10.093Z,38.80
2022-08-03T01:04:11.721Z,38.90
2022-08-03T01:09:26.935Z,38.90
2022-08-03T01:14:54.998Z,39.00
2022-08-03T01:20:00.429Z,39.90
2022-08-03T01:25:10.052Z,40.60
2022-08-03T01:30:12.492Z,40.70
2022-08-03T01:35:19.863Z,40.90
2022-08-03T01:40:22.143Z,41.30
2022-08-03T01:45:24.313Z,41.80
2022-08-03T01:50:27.864Z,42.20
2022-08-03T01:55:32.067Z,42.00
2022-08-03T02:00:36.727Z,42.70
2022-08-03T02:05:39.740Z,42.80
2022-08-03T02:10:42.195Z,42.60
2022-08-03T02:15:44.825Z,43.10
2022-08-03T02:20:47.038Z,43.40
2022-08-03T02:25:52.920Z,43.70
2022-08-03T02:30:55.679Z,43.60
2022-08-03T02:35:57.844Z,43.70
2022-08-03T02:41:01.059Z,43.40
2022-08-03T02:46:02.716Z,43.30
2022-08-03T02:51:04.701Z,44.00
2022-08-03T02:56:07.172Z,43.80
2022-08-03T03:01:09.259Z,44.20
2022-08-03T03:06:11.076Z,44.50
2022-08-03T03:11:13.903Z,44.30
2022-08-03T03:16:15.941Z,44.00
2022-08-03T03:21:18.397Z,44.60
2022-08-03T03:26:20.137Z,44.60
2022-08-03T03:31:21.881Z,44.70
2022-08-03T03:36:23.627Z,44.70
2022-08-03T03:41:25.629Z,45.20
2022-08-03T03:46:27.292Z,44.90
2022-08-03T03:51:28.961Z,45.30
2022-08-03T03:56:30.653Z,45.50
2022-08-03T04:01:32.365Z,45.60
2022-08-03T04:06:52.405Z,45.50
2022-08-03T04:11:54.859Z,46.30
2022-08-03T04:16:58.933Z,46.20
2022-08-03T04:22:02.523Z,46.40
2022-08-03T04:27:06.961Z,46.40
2022-08-03T04:32:09.268Z,46.80
2022-08-03T04:37:11.816Z,47.20
2022-08-03T04:42:14.011Z,47.80
2022-08-03T04:47:15.804Z,47.90
2022-08-03T04:52:19.050Z,47.60
2022-08-03T04:57:23.090Z,47.40
2022-08-03T05:02:25.293Z,45.20
2022-08-03T05:07:35.522Z,44.90
2022-08-03T05:12:37.760Z,45.20
2022-08-03T05:17:39.669Z,45.10
2022-08-03T05:22:41.318Z,44.30
2022-08-03T05:27:42.950Z,43.90
2022-08-03T05:32:44.767Z,43.60
2022-08-03T05:37:54.544Z,43.90
2022-08-03T05:42:57.021Z,43.20
2022-08-03T05:48:00.168Z,43.10
2022-08-03T05:53:01.952Z,42.80
2022-08-03T05:58:05.098Z,42.60
2022-08-03T06:03:07.000Z,42.10
2022-08-03T06:08:08.624Z,42.40
2022-08-03T06:13:10.429Z,43.00
2022-08-03T06:18:12.083Z,42.10
2022-08-03T06:23:17.645Z,42.10
2022-08-03T06:28:51.893Z,41.90
2022-08-03T06:33:48.552Z,41.80
2022-08-03T06:39:03.298Z,41.80
2022-08-03T06:44:05.040Z,41.60
2022-08-03T06:49:07.072Z,41.20
2022-08-03T06:54:08.892Z,40.90
2022-08-03T06:59:10.531Z,40.70
2022-08-03T07:04:32.231Z,40.50
2022-08-03T07:09:33.896Z,41.60
2022-08-03T07:14:35.554Z,41.40
2022-08-03T07:19:37.323Z,41.10
2022-08-03T07:24:38.967Z,40.80
2022-08-03T07:29:40.629Z,40.50
2022-08-03T07:34:42.304Z,40.30
2022-08-03T07:39:44.731Z,40.10
2022-08-03T07:44:46.388Z,39.90
2022-08-03T07:49:48.035Z,39.70
2022-08-03T07:54:49.773Z,39.60
2022-08-03T08:00:01.938Z,39.50
2022-08-03T08:05:05.893Z,39.40
2022-08-03T08:10:10.083Z,39.20
2022-08-03T08:15:12.094Z,39.10
2022-08-03T08:20:18.905Z,39.00
2022-08-03T08:25:31.535Z,38.90
2022-08-03T08:30:33.659Z,38.70
2022-08-03T08:35:37.240Z,38.50
2022-08-03T08:40:39.177Z,38.50
2022-08-03T08:45:41.255Z,38.30
2022-08-03T08:50:43.104Z,38.40
2022-08-03T08:55:58.513Z,38.20
2022-08-03T09:01:01.649Z,38.10
2022-08-03T09:06:03.560Z,38.00
2022-08-03T09:11:05.347Z,37.90
2022-08-03T09:16:13.387Z,37.90
2022-08-03T09:21:32.846Z,37.70
2022-08-03T09:26:36.441Z,37.70
2022-08-03T09:31:44.718Z,37.70
2022-08-03T09:36:51.030Z,37.60
2022-08-03T09:42:06.068Z,37.40
2022-08-03T09:47:08.394Z,37.40
2022-08-03T09:52:39.295Z,37.30
2022-08-03T09:57:47.165Z,37.30
2022-08-03T10:02:50.606Z,37.20
2022-08-03T10:07:52.421Z,37.20
2022-08-03T10:12:54.153Z,37.10
2022-08-03T10:17:55.784Z,37.10
2022-08-03T10:22:58.049Z,37.00
2022-08-03T10:28:02.186Z,36.90
2022-08-03T10:33:49.263Z,36.90
2022-08-03T10:38:46.785Z,36.80
2022-08-03T10:43:59.434Z,36.70
2022-08-03T10:49:01.455Z,36.70
2022-08-03T10:54:03.377Z,36.60
2022-08-03T10:59:06.074Z,36.60
2022-08-03T11:04:17.354Z,36.50
2022-08-03T11:09:19.080Z,36.50
2022-08-03T11:14:21.556Z,36.40
2022-08-03T11:19:27.692Z,36.40
2022-08-03T11:24:43.643Z,36.30
2022-08-03T11:29:54.200Z,36.30
2022-08-03T11:35:07.170Z,36.30
2022-08-03T11:40:28.813Z,36.20
2022-08-03T11:45:31.303Z,36.10
2022-08-03T11:50:36.914Z,36.10
2022-08-03T11:55:38.649Z,36.00
2022-08-03T12:00:40.773Z,36.30
2022-08-03T12:05:52.791Z,35.90
2022-08-03T12:10:55.540Z,35.80
2022-08-03T12:15:59.149Z,35.70
2022-08-03T12:21:06.137Z,35.60
2022-08-03T12:26:09.772Z,35.60
2022-08-03T12:31:11.484Z,35.60
2022-08-03T12:36:13.126Z,35.50
2022-08-03T12:41:16.645Z,35.50
2022-08-03T12:46:19.013Z,35.30
2022-08-03T12:51:20.649Z,35.30
2022-08-03T12:56:22.465Z,35.20
2022-08-03T13:01:24.538Z,35.10
2022-08-03T13:06:27.691Z,35.10
2022-08-03T13:11:50.661Z,35.00
2022-08-03T13:16:51.191Z,34.90
2022-08-03T13:22:03.703Z,34.80
2022-08-03T13:27:58.910Z,34.70
2022-08-03T13:32:29.167Z,34.60
2022-08-03T13:37:32.276Z,34.50
2022-08-03T13:42:35.025Z,34.50
2022-08-03T13:47:37.841Z,34.40
2022-08-03T13:52:39.509Z,34.40
2022-08-03T13:58:11.502Z,34.20
2022-08-03T14:03:10.854Z,34.10
2022-08-03T14:08:15.287Z,34.00
2022-08-03T14:13:18.164Z,34.00
2022-08-03T14:18:28.805Z,33.90
2022-08-03T14:23:35.836Z,33.80
2022-08-03T14:28:37.752Z,33.70
2022-08-03T14:33:39.688Z,33.60
2022-08-03T14:38:41.333Z,33.60
2022-08-03T14:44:01.310Z,33.50
2022-08-03T14:50:32.077Z,33.40
2022-08-03T14:54:26.986Z,33.30
2022-08-03T14:59:28.706Z,33.30
2022-08-03T15:04:50.341Z,33.20
2022-08-03T15:09:52.388Z,33.00
2022-08-03T15:14:54.201Z,33.00
2022-08-03T15:20:00.264Z,32.90
2022-08-03T15:26:31.914Z,32.90
2022-08-03T15:30:29.719Z,32.80
2022-08-03T15:35:31.512Z,32.70
2022-08-03T15:40:33.241Z,32.70
2022-08-03T15:45:35.457Z,32.60
2022-08-03T15:50:38.490Z,32.60
2022-08-03T15:55:40.535Z,32.40
2022-08-03T16:00:42.805Z,32.40
2022-08-03T16:05:44.450Z,32.40
2022-08-03T16:10:46.852Z,32.30
2022-08-03T16:15:50.521Z,32.20
2022-08-03T16:20:52.181Z,32.30
2022-08-03T16:25:53.882Z,32.30
2022-08-03T16:30:55.538Z,32.50
2022-08-03T16:35:57.524Z,32.70
2022-08-03T16:40:59.316Z,32.80
2022-08-03T16:46:01.173Z,33.10
2022-08-03T16:51:03.035Z,33.00
2022-08-03T16:56:09.856Z,33.20
2022-08-03T17:01:22.334Z,33.10
2022-08-03T17:06:26.845Z,33.20
2022-08-03T17:11:46.742Z,33.20
2022-08-03T17:16:53.086Z,33.30
2022-08-03T17:22:01.162Z,33.30
2022-08-03T17:27:08.962Z,33.30
2022-08-03T17:32:13.899Z,33.30
2022-08-03T17:37:49.896Z,33.30
2022-08-03T17:42:42.913Z,33.30
2022-08-03T17:47:44.925Z,33.20
2022-08-03T17:53:07.138Z,33.10
2022-08-03T17:58:32.820Z,33.00
2022-08-03T18:03:57.972Z,33.00
2022-08-03T18:09:00.113Z,33.00
2022-08-03T18:14:16.523Z,33.10
2022-08-03T18:19:19.005Z,33.40
2022-08-03T18:24:21.201Z,33.60
2022-08-03T18:29:27.650Z,34.10
2022-08-03T18:34:34.246Z,33.80
2022-08-03T18:39:49.346Z,34.10
2022-08-03T18:44:53.812Z,34.10
2022-08-03T18:50:33.361Z,33.90
2022-08-03T18:55:38.635Z,33.80
2022-08-03T19:02:00.132Z,33.80
2022-08-03T19:06:39.785Z,33.80
2022-08-03T19:12:12.693Z,33.80
2022-08-03T19:17:09.424Z,33.90
2022-08-03T19:22:15.937Z,34.00
2022-08-03T19:27:19.178Z,33.90
2022-08-03T19:32:29.621Z,34.00
2022-08-03T19:37:40.009Z,34.00
2022-08-03T19:42:45.695Z,34.70
2022-08-03T19:47:52.128Z,34.10
2022-08-03T19:52:55.332Z,34.20
2022-08-03T19:57:58.542Z,34.20
2022-08-03T20:03:00.581Z,34.10
2022-08-03T20:08:03.733Z,33.40
2022-08-03T20:13:05.871Z,32.40
2022-08-03T20:18:16.775Z,31.40
2022-08-03T20:23:19.820Z,31.00
2022-08-03T20:28:32.742Z,31.10
2022-08-03T20:33:45.839Z,30.80
2022-08-03T20:38:51.984Z,30.50
2022-08-03T20:43:53.996Z,30.80
2022-08-03T20:48:57.197Z,30.90
2022-08-03T20:54:03.036Z,30.90
2022-08-03T20:59:07.153Z,30.00
2022-08-03T21:04:20.859Z,29.90
2022-08-03T21:09:33.236Z,29.60
2022-08-03T21:14:39.397Z,29.30
2022-08-03T21:19:52.192Z,29.90
2022-08-03T21:24:56.263Z,30.30
2022-08-03T21:30:01.995Z,30.10
2022-08-03T21:35:03.857Z,29.70
2022-08-03T21:40:06.081Z,29.30
2022-08-03T21:45:11.869Z,29.20
2022-08-03T21:50:17.029Z,29.30
2022-08-03T21:55:20.671Z,28.90
2022-08-03T22:00:25.711Z,28.90
2022-08-03T22:05:42.467Z,28.70
2022-08-03T22:10:46.581Z,28.70
2022-08-03T22:15:48.777Z,29.10
2022-08-03T22:20:51.403Z,29.10
2022-08-03T22:25:53.378Z,29.40
2022-08-03T22:30:55.157Z,29.40
2022-08-03T22:35:57.401Z,29.10
2022-08-03T22:40:59.737Z,29.30
2022-08-03T22:46:09.616Z,29.50
2022-08-03T22:51:15.464Z,29.60
2022-08-03T22:56:17.089Z,30.00
2022-08-03T23:01:20.253Z,30.00
2022-08-03T23:06:23.313Z,31.30
2022-08-03T23:11:25.927Z,33.00
2022-08-03T23:16:29.151Z,33.30
2022-08-03T23:21:59.886Z,33.00
2022-08-03T23:26:53.480Z,32.00
2022-08-03T23:31:56.212Z,31.00
2022-08-03T23:36:59.494Z,30.60
2022-08-03T23:42:02.859Z,31.30
2022-08-03T23:47:04.557Z,31.60
2022-08-03T23:52:10.898Z,31.80
2022-08-03T23:57:15.618Z,31.30
